createdAt,value
2022-10-06T00:01:43.633Z,101581.53
2022-10-06T00:04:47.555Z,101586.88
2022-10-06T00:07:49.762Z,101576.88
2022-10-06T00:10:56.058Z,101573.72
2022-10-06T00:13:57.636Z,101574.81
2022-10-06T00:16:59.501Z,101571.28
2022-10-06T00:20:01.069Z,101575.41
2022-10-06T00:23:06.195Z,101567.81
2022-10-06T00:26:16.721Z,101571.25
2022-10-06T00:29:18.923Z,101573.88
2022-10-06T00:32:20.911Z,101571.88
2022-10-06T00:35:23.287Z,101561.28
2022-10-06T00:38:25.578Z,101563.09
2022-10-06T00:41:27.411Z,101558.94
2022-10-06T00:44:29.207Z,101553.47
2022-10-06T00:47:32.947Z,101540.12
2022-10-06T00:50:36.015Z,101539.19
2022-10-06T00:53:37.800Z,101543.78
2022-10-06T00:56:40.994Z,101546.16
2022-10-06T00:59:42.979Z,101540.44
2022-10-06T01:03:09.872Z,101541.25
2022-10-06T01:06:11.949Z,101541.25
2022-10-06T01:09:16.360Z,101529.50
2022-10-06T01:12:19.404Z,101532.16
2022-10-06T01:15:22.203Z,101531.50
2022-10-06T01:18:27.440Z,101542.94
2022-10-06T01:21:41.542Z,101535.75
2022-10-06T01:24:46.885Z,101546.59
2022-10-06T01:27:54.041Z,101541.19
2022-10-06T01:30:57.918Z,101542.94
2022-10-06T01:34:00.054Z,101550.66
2022-10-06T01:37:01.640Z,101551.41
2022-10-06T01:40:03.681Z,101549.53
2022-10-06T01:43:05.250Z,101540.31
2022-10-06T01:46:07.180Z,101548.37
2022-10-06T01:49:08.756Z,101543.28
2022-10-06T01:52:13.599Z,101550.91
2022-10-06T01:55:15.267Z,101545.19
2022-10-06T01:58:17.300Z,101543.44
2022-10-06T02:01:19.143Z,101553.50
2022-10-06T02:04:21.297Z,101552.13
2022-10-06T02:07:22.973Z,101560.09
2022-10-06T02:10:24.939Z,101564.59
2022-10-06T02:13:28.131Z,101561.84
2022-10-06T02:16:30.141Z,101574.69
2022-10-06T02:19:31.795Z,101573.72
2022-10-06T02:22:38.794Z,101579.63
2022-10-06T02:25:40.668Z,101580.06
2022-10-06T02:28:42.257Z,101578.28
2022-10-06T02:31:45.107Z,101577.88
2022-10-06T02:34:46.904Z,101587.31
2022-10-06T02:37:49.654Z,101584.38
2022-10-06T02:40:51.960Z,101587.16
2022-10-06T02:43:55.357Z,101580.47
2022-10-06T02:46:57.019Z,101583.91
2022-10-06T02:50:02.006Z,101591.72
2022-10-06T02:53:07.130Z,101580.97
2022-10-06T02:56:17.639Z,101593.50
2022-10-06T02:59:19.190Z,101593.41
2022-10-06T03:02:20.941Z,101590.00
2022-10-06T03:05:22.761Z,101598.94
2022-10-06T03:08:24.331Z,101594.47
2022-10-06T03:11:44.950Z,101610.00
2022-10-06T03:14:46.863Z,101605.72
2022-10-06T03:17:50.197Z,101610.91
2022-10-06T03:20:54.031Z,101612.22
2022-10-06T03:23:57.356Z,101618.44
2022-10-06T03:26:59.333Z,101617.38
2022-10-06T03:30:01.053Z,101620.19
2022-10-06T03:33:02.608Z,101614.13
2022-10-06T03:36:09.863Z,101613.75
2022-10-06T03:39:11.787Z,101613.28
2022-10-06T03:42:13.356Z,101621.41
2022-10-06T03:45:15.118Z,101618.97
2022-10-06T03:48:16.978Z,101616.53
2022-10-06T03:51:27.796Z,101608.59
2022-10-06T03:54:29.644Z,101621.44
2022-10-06T03:57:31.251Z,101601.97
2022-10-06T04:00:32.883Z,101602.13
2022-10-06T04:03:35.077Z,101605.53
2022-10-06T04:06:39.271Z,101610.09
2022-10-06T04:09:40.834Z,101606.37
2022-10-06T04:12:42.408Z,101607.00
2022-10-06T04:15:45.513Z,101613.50
2022-10-06T04:18:50.679Z,101616.97
2022-10-06T04:21:52.713Z,101613.41
2022-10-06T04:24:55.138Z,101612.66
2022-10-06T04:27:57.923Z,101614.72
2022-10-06T04:31:01.722Z,101620.34
2022-10-06T04:34:04.979Z,101620.37
2022-10-06T04:37:07.055Z,101615.09
2022-10-06T04:40:09.304Z,101619.41
2022-10-06T04:43:11.027Z,101618.50
2022-10-06T04:46:38.008Z,101608.06
2022-10-06T04:49:35.339Z,101611.28
2022-10-06T04:52:36.937Z,101604.47
2022-10-06T04:55:38.833Z,101610.47
2022-10-06T04:58:43.348Z,101607.16
2022-10-06T05:01:44.994Z,101616.31
2022-10-06T05:04:47.056Z,101614.16
2022-10-06T05:07:48.697Z,101614.06
2022-10-06T05:10:50.245Z,101610.88
2022-10-06T05:13:54.996Z,101615.75
2022-10-06T05:16:57.046Z,101616.97
2022-10-06T05:19:58.717Z,101620.09
2022-10-06T05:23:00.367Z,101621.44
2022-10-06T05:26:02.236Z,101608.88
2022-10-06T05:29:04.673Z,101609.47
2022-10-06T05:32:06.469Z,101611.16
2022-10-06T05:35:08.592Z,101606.28
2022-10-06T05:38:11.888Z,101615.78
2022-10-06T05:41:24.336Z,101607.38
2022-10-06T05:44:25.888Z,101612.97
2022-10-06T05:47:27.469Z,101619.87
2022-10-06T05:50:29.421Z,101619.22
2022-10-06T05:53:32.923Z,101628.59
2022-10-06T05:56:37.052Z,101633.56
2022-10-06T05:59:38.620Z,101630.34
2022-10-06T06:02:40.221Z,101632.94
2022-10-06T06:05:43.238Z,101635.62
2022-10-06T06:08:45.800Z,101631.59
2022-10-06T06:11:50.170Z,101639.69
2022-10-06T06:15:10.567Z,101641.38
2022-10-06T06:18:13.089Z,101633.78
2022-10-06T06:21:15.020Z,101636.53
2022-10-06T06:24:16.730Z,101637.53
2022-10-06T06:27:18.620Z,101641.16
2022-10-06T06:30:21.249Z,101641.97
2022-10-06T06:33:23.216Z,101639.03
2022-10-06T06:36:26.264Z,101636.13
2022-10-06T06:39:28.021Z,101640.31
2022-10-06T06:42:29.739Z,101651.81
2022-10-06T06:45:31.634Z,101651.13
2022-10-06T06:48:33.480Z,101651.00
2022-10-06T06:51:37.405Z,101648.69
2022-10-06T06:54:40.568Z,101649.69
2022-10-06T06:57:42.837Z,101648.22
2022-10-06T07:00:44.961Z,101637.16
2022-10-06T07:03:59.127Z,101652.41
2022-10-06T07:07:00.916Z,101656.84
2022-10-06T07:10:02.830Z,101656.16
2022-10-06T07:13:06.972Z,101663.97
2022-10-06T07:16:37.379Z,101660.47
2022-10-06T07:19:50.754Z,101658.34
2022-10-06T07:23:11.060Z,101660.16
2022-10-06T07:26:12.647Z,101658.31
2022-10-06T07:29:14.289Z,101660.37
2022-10-06T07:32:16.304Z,101672.06
2022-10-06T07:35:20.535Z,101667.75
2022-10-06T07:38:26.180Z,101671.41
2022-10-06T07:41:29.497Z,101667.19
2022-10-06T07:44:31.052Z,101671.41
2022-10-06T07:47:33.298Z,101675.31
2022-10-06T07:50:38.309Z,101679.47
2022-10-06T07:53:40.301Z,101692.91
2022-10-06T07:56:42.280Z,101686.31
2022-10-06T07:59:44.456Z,101686.75
2022-10-06T08:02:46.254Z,101688.25
2022-10-06T08:05:50.505Z,101689.22
2022-10-06T08:08:56.707Z,101682.38
2022-10-06T08:12:18.740Z,101680.34
2022-10-06T08:15:20.333Z,101695.66
2022-10-06T08:18:44.349Z,101695.69
2022-10-06T08:21:44.308Z,101709.03
2022-10-06T08:25:04.734Z,101708.34
2022-10-06T08:28:07.505Z,101706.66
2022-10-06T08:31:13.229Z,101716.62
2022-10-06T08:34:15.204Z,101713.16
2022-10-06T08:37:24.138Z,101712.16
2022-10-06T08:40:27.660Z,101712.31
2022-10-06T08:43:31.157Z,101715.22
2022-10-06T08:46:46.550Z,101720.66
2022-10-06T08:49:50.194Z,101716.84
2022-10-06T08:53:24.452Z,101718.16
2022-10-06T08:56:45.045Z,101708.69
2022-10-06T08:59:50.020Z,101706.44
2022-10-06T09:02:52.139Z,101712.22
2022-10-06T09:06:01.047Z,101722.53
2022-10-06T09:09:38.816Z,101718.56
2022-10-06T09:12:47.685Z,101720.12
2022-10-06T09:16:10.077Z,101719.47
2022-10-06T09:19:24.559Z,101715.16
2022-10-06T09:22:32.107Z,101716.56
2022-10-06T09:25:34.087Z,101717.56
2022-10-06T09:28:37.059Z,101720.53
2022-10-06T09:31:44.939Z,101713.84
2022-10-06T09:34:51.409Z,101705.94
2022-10-06T09:37:54.558Z,101696.97
2022-10-06T09:40:56.610Z,101702.03
2022-10-06T09:44:01.668Z,101698.41
2022-10-06T09:47:45.431Z,101704.84
2022-10-06T09:51:17.002Z,101698.94
2022-10-06T09:54:18.770Z,101698.59
2022-10-06T09:57:25.363Z,101706.59
2022-10-06T10:00:31.164Z,101704.19
2022-10-06T10:04:08.621Z,101706.56
2022-10-06T10:07:33.231Z,101707.72
2022-10-06T10:10:36.675Z,101705.66
2022-10-06T10:13:43.761Z,101699.91
2022-10-06T10:16:50.940Z,101708.94
2022-10-06T10:19:56.006Z,101709.91
2022-10-06T10:23:01.343Z,101712.53
2022-10-06T10:26:27.154Z,101712.47
2022-10-06T10:29:48.957Z,101704.09
2022-10-06T10:33:18.889Z,101710.56
2022-10-06T10:36:26.224Z,101715.66
2022-10-06T10:39:42.145Z,101709.56
2022-10-06T10:43:01.210Z,101706.91
2022-10-06T10:46:15.085Z,101706.91
2022-10-06T10:49:25.778Z,101699.97
2022-10-06T10:52:36.501Z,101698.09
2022-10-06T10:55:44.873Z,101694.59
2022-10-06T10:58:50.654Z,101692.62
2022-10-06T11:02:01.090Z,101697.03
2022-10-06T11:05:17.490Z,101686.41
2022-10-06T11:08:47.565Z,101678.34
2022-10-06T11:12:33.804Z,101682.59
2022-10-06T11:15:57.680Z,101678.28
2022-10-06T11:19:29.998Z,101676.56
2022-10-06T11:22:44.758Z,101673.72
2022-10-06T11:26:10.179Z,101668.59
2022-10-06T11:29:49.598Z,101674.19
2022-10-06T11:33:09.986Z,101666.78
2022-10-06T11:36:19.291Z,101664.19
2022-10-06T11:39:26.964Z,101660.72
2022-10-06T11:42:41.068Z,101660.09
2022-10-06T11:45:54.715Z,101659.03
2022-10-06T11:49:30.461Z,101658.22
2022-10-06T11:52:31.973Z,101653.16
2022-10-06T11:55:33.885Z,101662.03
2022-10-06T11:58:50.773Z,101652.31
2022-10-06T12:01:56.057Z,101655.81
2022-10-06T12:05:28.499Z,101646.75
2022-10-06T12:08:40.642Z,101639.66
2022-10-06T12:11:44.084Z,101639.75
2022-10-06T12:18:30.937Z,101639.84
2022-10-06T12:21:36.067Z,101638.97
2022-10-06T12:24:44.410Z,101635.44
2022-10-06T12:28:11.030Z,101627.50
2022-10-06T12:31:21.501Z,101635.41
2022-10-06T12:34:43.956Z,101630.06
2022-10-06T12:37:54.437Z,101626.56
2022-10-06T12:40:57.806Z,101624.81
2022-10-06T12:44:00.754Z,101623.87
2022-10-06T12:47:07.143Z,101621.25
2022-10-06T12:50:25.400Z,101622.12
2022-10-06T12:53:36.962Z,101622.97
2022-10-06T12:56:41.220Z,101621.22
2022-10-06T12:59:43.120Z,101623.03
2022-10-06T13:02:45.500Z,101617.75
2022-10-06T13:06:04.580Z,101619.50
2022-10-06T13:09:14.436Z,101622.19
2022-10-06T13:12:37.961Z,101623.94
2022-10-06T13:15:43.299Z,101623.91
2022-10-06T13:18:44.929Z,101609.75
2022-10-06T13:21:47.095Z,101613.28
2022-10-06T13:24:49.004Z,101600.00
2022-10-06T13:27:52.072Z,101606.19
2022-10-06T13:30:59.804Z,101603.56
2022-10-06T13:34:12.150Z,101611.53
2022-10-06T13:37:15.619Z,101609.75
2022-10-06T13:40:47.318Z,101605.19
2022-10-06T13:44:00.309Z,101603.88
2022-10-06T13:47:16.762Z,101606.19
2022-10-06T13:50:20.152Z,101600.47
2022-10-06T13:53:25.762Z,101603.41
2022-10-06T13:56:39.095Z,101604.50
2022-10-06T13:59:41.347Z,101600.16
2022-10-06T14:02:48.815Z,101602.31
2022-10-06T14:05:52.428Z,101608.69
2022-10-06T14:08:57.619Z,101607.03
2022-10-06T14:12:13.047Z,101608.00
2022-10-06T14:15:24.695Z,101615.06
2022-10-06T14:18:33.486Z,101615.97
2022-10-06T14:21:41.513Z,101618.53
2022-10-06T14:24:51.205Z,101617.66
2022-10-06T14:27:52.799Z,101619.34
2022-10-06T14:30:56.378Z,101612.16
2022-10-06T14:33:58.101Z,101618.31
2022-10-06T14:37:00.028Z,101615.59
2022-10-06T14:40:02.304Z,101607.56
2022-10-06T14:43:04.169Z,101611.12
2022-10-06T14:46:09.645Z,101621.56
2022-10-06T14:49:14.043Z,101619.66
2022-10-06T14:52:16.002Z,101618.62
2022-10-06T14:55:17.590Z,101623.91
2022-10-06T14:58:19.493Z,101631.88
2022-10-06T15:01:25.298Z,101629.03
2022-10-06T15:04:28.121Z,101635.84
2022-10-06T15:07:48.590Z,101628.78
2022-10-06T15:10:54.012Z,101634.84
2022-10-06T15:13:58.403Z,101643.37
2022-10-06T15:17:00.277Z,101644.00
2022-10-06T15:20:02.063Z,101645.59
2022-10-06T15:23:03.759Z,101646.38
2022-10-06T15:26:24.777Z,101648.75
2022-10-06T15:29:26.958Z,101657.06
2022-10-06T15:32:28.537Z,101664.44
2022-10-06T15:35:32.468Z,101666.84
2022-10-06T15:38:36.444Z,101669.19
2022-10-06T15:41:39.803Z,101664.69
2022-10-06T15:44:41.338Z,101661.91
2022-10-06T15:47:43.196Z,101663.09
2022-10-06T15:50:44.812Z,101660.22
2022-10-06T15:53:46.604Z,101670.72
2022-10-06T15:56:50.777Z,101677.59
2022-10-06T15:59:52.777Z,101678.13
2022-10-06T16:02:54.754Z,101678.81
2022-10-06T16:06:00.261Z,101678.78
2022-10-06T16:09:01.808Z,101685.16
2022-10-06T16:12:06.143Z,101681.19
2022-10-06T16:15:08.205Z,101681.78
2022-10-06T16:18:10.033Z,101688.50
2022-10-06T16:21:11.626Z,101690.50
2022-10-06T16:24:13.575Z,101698.78
2022-10-06T16:27:16.027Z,101700.59
2022-10-06T16:30:17.629Z,101708.66
2022-10-06T16:33:19.208Z,101708.19
2022-10-06T16:36:21.252Z,101717.81
2022-10-06T16:39:23.727Z,101720.56
2022-10-06T16:42:25.343Z,101718.53
2022-10-06T16:45:26.930Z,101718.50
2022-10-06T16:48:30.050Z,101722.63
2022-10-06T16:51:34.345Z,101726.69
2022-10-06T16:54:35.879Z,101721.31
2022-10-06T16:57:37.454Z,101732.94
2022-10-06T17:00:39.463Z,101721.41
2022-10-06T17:03:41.694Z,101725.13
2022-10-06T17:06:45.763Z,101734.06
2022-10-06T17:10:08.521Z,101739.84
2022-10-06T17:13:09.437Z,101735.03
2022-10-06T17:16:13.983Z,101733.53
2022-10-06T17:19:17.326Z,101738.22
2022-10-06T17:22:19.208Z,101739.03
2022-10-06T17:25:22.550Z,101743.19
2022-10-06T17:28:24.234Z,101757.16
2022-10-06T17:31:33.044Z,101749.53
2022-10-06T17:34:34.690Z,101745.81
2022-10-06T17:37:37.201Z,101751.66
2022-10-06T17:40:45.133Z,101755.34
2022-10-06T17:43:49.624Z,101751.97
2022-10-06T17:46:56.715Z,101750.69
2022-10-06T17:49:58.934Z,101751.59
2022-10-06T17:53:01.419Z,101747.75
2022-10-06T17:56:07.685Z,101744.00
2022-10-06T17:59:16.025Z,101749.19
2022-10-06T18:02:18.076Z,101749.38
2022-10-06T18:05:19.693Z,101750.94
2022-10-06T18:08:23.741Z,101742.72
2022-10-06T18:12:04.357Z,101743.09
2022-10-06T18:15:06.289Z,101737.44
2022-10-06T18:18:08.615Z,101742.50
2022-10-06T18:21:10.598Z,101743.25
2022-10-06T18:24:14.129Z,101744.75
2022-10-06T18:27:16.295Z,101744.75
2022-10-06T18:30:18.160Z,101739.22
2022-10-06T18:35:57.481Z,101748.16
2022-10-06T18:36:42.890Z,101751.63
2022-10-06T18:39:44.673Z,101759.84
2022-10-06T18:42:47.566Z,101754.25
2022-10-06T18:46:08.583Z,101761.00
2022-10-06T18:49:16.453Z,101767.12
2022-10-06T18:52:18.317Z,101768.81
2022-10-06T18:55:21.038Z,101769.03
2022-10-06T18:58:23.203Z,101766.31
2022-10-06T19:01:30.073Z,101778.38
2022-10-06T19:04:36.356Z,101784.34
2022-10-06T19:07:38.759Z,101786.84
2022-10-06T19:11:00.797Z,101781.31
2022-10-06T19:14:03.247Z,101785.84
2022-10-06T19:17:13.834Z,101786.37
2022-10-06T19:20:15.986Z,101793.75
2022-10-06T19:23:19.093Z,101793.22
2022-10-06T19:26:22.962Z,101781.41
2022-10-06T19:29:27.332Z,101781.66
2022-10-06T19:32:34.551Z,101793.75
2022-10-06T19:35:36.717Z,101788.50
2022-10-06T19:38:39.054Z,101788.81
2022-10-06T19:42:00.710Z,101798.88
2022-10-06T19:45:03.792Z,101791.31
2022-10-06T19:48:05.698Z,101793.56
2022-10-06T19:51:17.538Z,101794.16
2022-10-06T19:54:19.876Z,101800.44
2022-10-06T19:57:21.998Z,101797.56
2022-10-06T20:00:27.214Z,101806.81
2022-10-06T20:03:30.403Z,101814.91
2022-10-06T20:06:35.129Z,101820.59
2022-10-06T20:09:36.732Z,101818.28
2022-10-06T20:12:39.410Z,101815.91
2022-10-06T20:15:40.960Z,101816.75
2022-10-06T20:18:44.144Z,101815.28
2022-10-06T20:21:47.275Z,101815.06
2022-10-06T20:24:48.983Z,101814.31
2022-10-06T20:27:50.876Z,101808.88
2022-10-06T20:30:53.476Z,101807.84
2022-10-06T20:33:58.422Z,101808.09
2022-10-06T20:37:05.266Z,101806.66
2022-10-06T20:40:26.477Z,101814.38
2022-10-06T20:43:28.754Z,101820.19
2022-10-06T20:46:33.177Z,101815.53
2022-10-06T20:49:34.874Z,101814.00
2022-10-06T20:52:37.021Z,101823.00
2022-10-06T20:55:38.566Z,101829.38
2022-10-06T20:58:44.148Z,101819.03
2022-10-06T21:01:47.425Z,101820.06
2022-10-06T21:04:49.384Z,101821.94
2022-10-06T21:07:51.043Z,101822.56
2022-10-06T21:11:03.293Z,101821.84
2022-10-06T21:14:07.419Z,101816.94
2022-10-06T21:17:09.109Z,101821.56
2022-10-06T21:20:11.172Z,101824.06
2022-10-06T21:23:13.628Z,101824.81
2022-10-06T21:26:18.048Z,101824.06
2022-10-06T21:29:20.619Z,101826.47
2022-10-06T21:32:22.617Z,101825.94
2022-10-06T21:35:24.631Z,101826.78
2022-10-06T21:38:26.920Z,101823.47
2022-10-06T21:41:36.413Z,101826.91
2022-10-06T21:44:38.106Z,101832.19
2022-10-06T21:47:40.132Z,101836.97
2022-10-06T21:50:41.864Z,101823.44
2022-10-06T21:53:44.061Z,101831.38
2022-10-06T21:56:46.321Z,101834.13
2022-10-06T21:59:48.082Z,101824.62
2022-10-06T22:02:51.057Z,101824.75
2022-10-06T22:05:52.767Z,101820.28
2022-10-06T22:08:55.883Z,101820.19
2022-10-06T22:11:58.449Z,101823.16
2022-10-06T22:15:00.433Z,101817.88
2022-10-06T22:18:02.519Z,101820.53
2022-10-06T22:21:14.890Z,101819.78
2022-10-06T22:24:21.634Z,101822.81
2022-10-06T22:27:24.156Z,101808.06
2022-10-06T22:30:26.196Z,101820.75
2022-10-06T22:33:27.871Z,101822.53
2022-10-06T22:36:29.845Z,101823.72
2022-10-06T22:39:32.068Z,101824.47
2022-10-06T22:42:33.721Z,101814.53
2022-10-06T22:45:35.799Z,101815.81
2022-10-06T22:48:38.577Z,101809.44
2022-10-06T22:51:40.272Z,101804.88
2022-10-06T22:54:42.268Z,101806.16
2022-10-06T22:57:44.209Z,101797.41
2022-10-06T23:00:46.275Z,101801.91
2022-10-06T23:03:48.477Z,101798.84
2022-10-06T23:06:50.184Z,101797.88
2022-10-06T23:09:52.113Z,101804.22
2022-10-06T23:12:55.461Z,101806.16
2022-10-06T23:16:08.345Z,101809.56
2022-10-06T23:19:10.895Z,101805.34
2022-10-06T23:22:12.540Z,101813.78
2022-10-06T23:25:14.761Z,101798.34
2022-10-06T23:28:16.509Z,101798.16
2022-10-06T23:31:18.455Z,101798.84
2022-10-06T23:34:20.400Z,101793.69
2022-10-06T23:37:22.064Z,101788.22
2022-10-06T23:40:24.034Z,101792.81
2022-10-06T23:43:25.763Z,101792.34
2022-10-06T23:46:27.880Z,101789.06
2022-10-06T23:49:30.032Z,101792.09
2022-10-06T23:52:31.874Z,101784.56
2022-10-06T23:55:33.739Z,101796.72
2022-10-06T23:58:35.739Z,101800.06
